sensor_id;sensor_type;location;lat;lon;timestamp;P1;durP1;ratioP1;P2;durP2;ratioP2
7807;SDS011;3949;49.254;8.894;2023-05-10T00:01:51;1.43;;;1.17;;
7807;SDS011;3949;49.254;8.894;2023-05-10T00:04:17;2.17;;;1.50;;
7807;SDS011;3949;49.254;8.894;2023-05-10T00:06:43;1.40;;;1.30;;
7807;SDS011;3949;49.254;8.894;2023-05-10T00:09:09;2.67;;;2.47;;
7807;SDS011;3949;49.254;8.894;2023-05-10T00:11:35;1.17;;;1.17;;
7807;SDS011;3949;49.254;8.894;2023-05-10T00:14:04;1.47;;;1.10;;
7807;SDS011;3949;49.254;8.894;2023-05-10T00:16:30;1.40;;;1.30;;
7807;SDS011;3949;49.254;8.894;2023-05-10T00:18:56;2.97;;;1.33;;
7807;SDS011;3949;49.254;8.894;2023-05-10T00:21:21;1.77;;;1.40;;
7807;SDS011;3949;49.254;8.894;2023-05-10T00:23:47;2.00;;;1.40;;
7807;SDS011;3949;49.254;8.894;2023-05-10T00:26:13;1.53;;;1.43;;
7807;SDS011;3949;49.254;8.894;2023-05-10T00:28:39;1.27;;;1.17;;
7807;SDS011;3949;49.254;8.894;2023-05-10T00:31:05;1.20;;;1.20;;
7807;SDS011;3949;49.254;8.894;2023-05-10T00:33:31;1.70;;;1.43;;
7807;SDS011;3949;49.254;8.894;2023-05-10T00:35:57;1.30;;;1.20;;
7807;SDS011;3949;49.254;8.894;2023-05-10T00:38:23;1.30;;;1.20;;
7807;SDS011;3949;49.254;8.894;2023-05-10T00:40:49;1.50;;;1.40;;
7807;SDS011;3949;49.254;8.894;2023-05-10T00:43:15;2.00;;;1.60;;
7807;SDS011;3949;49.254;8.894;2023-05-10T00:45:41;1.50;;;1.40;;
7807;SDS011;3949;49.254;8.894;2023-05-10T00:48:07;1.30;;;1.20;;
7807;SDS011;3949;49.254;8.894;2023-05-10T00:50:34;1.50;;;1.40;;
7807;SDS011;3949;49.254;8.894;2023-05-10T00:53:00;1.43;;;1.33;;
7807;SDS011;3949;49.254;8.894;2023-05-10T00:55:26;1.40;;;1.30;;
7807;SDS011;3949;49.254;8.894;2023-05-10T00:57:53;1.50;;;1.40;;
7807;SDS011;3949;49.254;8.894;2023-05-10T01:00:19;3.57;;;2.00;;
7807;SDS011;3949;49.254;8.894;2023-05-10T01:02:45;1.70;;;1.60;;
7807;SDS011;3949;49.254;8.894;2023-05-10T01:05:12;1.47;;;1.37;;
7807;SDS011;3949;49.254;8.894;2023-05-10T01:07:38;1.73;;;1.63;;
7807;SDS011;3949;49.254;8.894;2023-05-10T01:10:05;2.20;;;1.67;;
7807;SDS011;3949;49.254;8.894;2023-05-10T01:12:31;1.57;;;1.20;;
7807;SDS011;3949;49.254;8.894;2023-05-10T01:14:57;3.17;;;1.50;;
7807;SDS011;3949;49.254;8.894;2023-05-10T01:17:23;1.83;;;1.43;;
7807;SDS011;3949;49.254;8.894;2023-05-10T01:19:50;1.80;;;1.70;;
7807;SDS011;3949;49.254;8.894;2023-05-10T01:40:42;1.97;;;1.87;;
7807;SDS011;3949;49.254;8.894;2023-05-10T01:43:17;2.17;;;1.97;;
7807;SDS011;3949;49.254;8.894;2023-05-10T01:48:41;3.20;;;2.03;;
7807;SDS011;3949;49.254;8.894;2023-05-10T01:51:12;1.90;;;1.80;;
7807;SDS011;3949;49.254;8.894;2023-05-10T01:53:41;2.10;;;2.00;;
7807;SDS011;3949;49.254;8.894;2023-05-10T01:56:08;2.10;;;2.00;;
7807;SDS011;3949;49.254;8.894;2023-05-10T01:58:35;2.30;;;2.20;;
7807;SDS011;3949;49.254;8.894;2023-05-10T02:01:03;2.03;;;1.93;;
7807;SDS011;3949;49.254;8.894;2023-05-10T02:03:30;2.00;;;1.90;;
7807;SDS011;3949;49.254;8.894;2023-05-10T02:05:56;2.07;;;1.97;;
7807;SDS011;3949;49.254;8.894;2023-05-10T02:08:23;2.40;;;2.30;;
7807;SDS011;3949;49.254;8.894;2023-05-10T02:10:50;3.00;;;2.80;;
7807;SDS011;3949;49.254;8.894;2023-05-10T02:13:17;2.70;;;2.50;;
7807;SDS011;3949;49.254;8.894;2023-05-10T02:15:43;2.90;;;2.70;;
7807;SDS011;3949;49.254;8.894;2023-05-10T02:18:12;3.27;;;2.97;;
7807;SDS011;3949;49.254;8.894;2023-05-10T02:20:39;3.37;;;2.80;;
7807;SDS011;3949;49.254;8.894;2023-05-10T02:23:05;3.00;;;2.80;;
7807;SDS011;3949;49.254;8.894;2023-05-10T02:25:32;3.23;;;2.97;;
7807;SDS011;3949;49.254;8.894;2023-05-10T02:27:58;3.60;;;3.40;;
7807;SDS011;3949;49.254;8.894;2023-05-10T02:30:25;3.23;;;3.03;;
7807;SDS011;3949;49.254;8.894;2023-05-10T02:32:51;3.10;;;2.90;;
7807;SDS011;3949;49.254;8.894;2023-05-10T02:35:17;5.20;;;4.53;;
7807;SDS011;3949;49.254;8.894;2023-05-10T02:37:44;4.83;;;4.43;;
7807;SDS011;3949;49.254;8.894;2023-05-10T02:40:11;3.00;;;2.80;;
7807;SDS011;3949;49.254;8.894;2023-05-10T02:42:38;4.13;;;3.77;;
7807;SDS011;3949;49.254;8.894;2023-05-10T02:45:07;4.20;;;3.90;;
7807;SDS011;3949;49.254;8.894;2023-05-10T02:47:34;4.17;;;3.87;;
7807;SDS011;3949;49.254;8.894;2023-05-10T02:50:00;3.83;;;3.60;;
7807;SDS011;3949;49.254;8.894;2023-05-10T02:52:27;5.47;;;5.07;;
7807;SDS011;3949;49.254;8.894;2023-05-10T02:54:58;5.13;;;4.73;;
7807;SDS011;3949;49.254;8.894;2023-05-10T02:57:27;4.40;;;4.10;;
7807;SDS011;3949;49.254;8.894;2023-05-10T02:59:54;4.37;;;4.07;;
7807;SDS011;3949;49.254;8.894;2023-05-10T03:02:20;3.87;;;3.57;;
7807;SDS011;3949;49.254;8.894;2023-05-10T03:04:47;3.93;;;3.63;;
7807;SDS011;3949;49.254;8.894;2023-05-10T03:07:12;3.77;;;3.47;;
7807;SDS011;3949;49.254;8.894;2023-05-10T03:09:38;3.70;;;3.50;;
7807;SDS011;3949;49.254;8.894;2023-05-10T03:12:15;6.03;;;3.80;;
7807;SDS011;3949;49.254;8.894;2023-05-10T03:14:56;4.00;;;3.70;;
7807;SDS011;3949;49.254;8.894;2023-05-10T03:17:25;4.00;;;3.70;;
7807;SDS011;3949;49.254;8.894;2023-05-10T03:19:55;4.43;;;4.00;;
7807;SDS011;3949;49.254;8.894;2023-05-10T03:22:26;4.33;;;4.03;;
7807;SDS011;3949;49.254;8.894;2023-05-10T03:24:54;5.00;;;4.50;;
7807;SDS011;3949;49.254;8.894;2023-05-10T03:27:23;4.37;;;4.07;;
7807;SDS011;3949;49.254;8.894;2023-05-10T03:29:50;5.30;;;4.80;;
7807;SDS011;3949;49.254;8.894;2023-05-10T03:32:16;5.20;;;4.77;;
7807;SDS011;3949;49.254;8.894;2023-05-10T03:34:42;5.60;;;5.10;;
7807;SDS011;3949;49.254;8.894;2023-05-10T03:37:08;5.23;;;4.93;;
7807;SDS011;3949;49.254;8.894;2023-05-10T03:39:34;5.90;;;5.43;;
7807;SDS011;3949;49.254;8.894;2023-05-10T03:42:00;6.03;;;4.90;;
7807;SDS011;3949;49.254;8.894;2023-05-10T03:44:26;6.30;;;5.80;;
7807;SDS011;3949;49.254;8.894;2023-05-10T03:46:52;5.77;;;5.37;;
7807;SDS011;3949;49.254;8.894;2023-05-10T03:49:18;6.00;;;5.57;;
7807;SDS011;3949;49.254;8.894;2023-05-10T03:51:44;5.97;;;5.40;;
7807;SDS011;3949;49.254;8.894;2023-05-10T03:54:11;5.30;;;4.90;;
7807;SDS011;3949;49.254;8.894;2023-05-10T03:56:37;4.80;;;4.47;;
7807;SDS011;3949;49.254;8.894;2023-05-10T03:59:03;4.77;;;4.37;;
7807;SDS011;3949;49.254;8.894;2023-05-10T04:01:32;4.77;;;4.27;;
7807;SDS011;3949;49.254;8.894;2023-05-10T04:03:59;4.67;;;4.27;;
7807;SDS011;3949;49.254;8.894;2023-05-10T04:06:25;4.43;;;4.13;;
7807;SDS011;3949;49.254;8.894;2023-05-10T04:08:51;4.33;;;3.93;;
7807;SDS011;3949;49.254;8.894;2023-05-10T04:11:17;4.20;;;3.90;;
7807;SDS011;3949;49.254;8.894;2023-05-10T04:13:43;4.40;;;4.00;;
7807;SDS011;3949;49.254;8.894;2023-05-10T04:16:09;4.07;;;3.77;;
7807;SDS011;3949;49.254;8.894;2023-05-10T04:18:35;3.87;;;3.57;;
7807;SDS011;3949;49.254;8.894;2023-05-10T04:21:01;4.20;;;3.90;;
7807;SDS011;3949;49.254;8.894;2023-05-10T04:23:27;4.20;;;3.90;;
7807;SDS011;3949;49.254;8.894;2023-05-10T04:25:58;4.10;;;3.80;;
7807;SDS011;3949;49.254;8.894;2023-05-10T04:28:24;11.30;;;4.53;;
7807;SDS011;3949;49.254;8.894;2023-05-10T04:30:50;4.40;;;4.00;;
7807;SDS011;3949;49.254;8.894;2023-05-10T04:33:16;4.07;;;3.67;;
7807;SDS011;3949;49.254;8.894;2023-05-10T04:35:42;4.23;;;3.93;;
7807;SDS011;3949;49.254;8.894;2023-05-10T04:38:09;4.27;;;3.97;;
7807;SDS011;3949;49.254;8.894;2023-05-10T04:40:35;4.40;;;4.00;;
7807;SDS011;3949;49.254;8.894;2023-05-10T04:43:01;3.97;;;3.67;;
7807;SDS011;3949;49.254;8.894;2023-05-10T04:45:27;5.03;;;3.60;;
7807;SDS011;3949;49.254;8.894;2023-05-10T04:47:53;4.50;;;4.10;;
7807;SDS011;3949;49.254;8.894;2023-05-10T04:50:19;4.27;;;3.97;;
7807;SDS011;3949;49.254;8.894;2023-05-10T04:52:45;4.13;;;3.70;;
7807;SDS011;3949;49.254;8.894;2023-05-10T04:55:11;4.13;;;3.73;;
7807;SDS011;3949;49.254;8.894;2023-05-10T04:57:37;4.37;;;4.03;;
7807;SDS011;3949;49.254;8.894;2023-05-10T05:00:03;4.13;;;3.73;;
7807;SDS011;3949;49.254;8.894;2023-05-10T05:02:29;4.00;;;3.70;;
7807;SDS011;3949;49.254;8.894;2023-05-10T05:04:56;3.90;;;3.60;;
7807;SDS011;3949;49.254;8.894;2023-05-10T05:07:22;3.93;;;3.63;;
7807;SDS011;3949;49.254;8.894;2023-05-10T05:09:48;4.07;;;3.77;;
7807;SDS011;3949;49.254;8.894;2023-05-10T05:12:14;4.03;;;3.73;;
7807;SDS011;3949;49.254;8.894;2023-05-10T05:14:40;4.73;;;4.03;;
7807;SDS011;3949;49.254;8.894;2023-05-10T05:17:06;4.20;;;3.90;;
7807;SDS011;3949;49.254;8.894;2023-05-10T05:19:33;5.33;;;4.10;;
7807;SDS011;3949;49.254;8.894;2023-05-10T05:21:59;4.23;;;3.57;;
7807;SDS011;3949;49.254;8.894;2023-05-10T05:24:25;4.70;;;4.30;;
7807;SDS011;3949;49.254;8.894;2023-05-10T05:26:51;5.70;;;4.43;;
7807;SDS011;3949;49.254;8.894;2023-05-10T05:29:17;5.17;;;4.30;;
7807;SDS011;3949;49.254;8.894;2023-05-10T05:31:43;4.07;;;3.77;;
7807;SDS011;3949;49.254;8.894;2023-05-10T05:34:09;3.90;;;3.60;;
7807;SDS011;3949;49.254;8.894;2023-05-10T05:36:37;4.23;;;3.93;;
7807;SDS011;3949;49.254;8.894;2023-05-10T05:39:03;3.97;;;3.67;;
7807;SDS011;3949;49.254;8.894;2023-05-10T05:41:29;3.87;;;3.53;;
7807;SDS011;3949;49.254;8.894;2023-05-10T05:43:55;3.97;;;3.67;;
7807;SDS011;3949;49.254;8.894;2023-05-10T05:46:21;3.87;;;3.60;;
7807;SDS011;3949;49.254;8.894;2023-05-10T05:48:47;4.63;;;3.90;;
7807;SDS011;3949;49.254;8.894;2023-05-10T05:51:13;4.43;;;3.73;;
7807;SDS011;3949;49.254;8.894;2023-05-10T05:53:39;4.20;;;3.90;;
7807;SDS011;3949;49.254;8.894;2023-05-10T05:56:05;3.63;;;3.43;;
7807;SDS011;3949;49.254;8.894;2023-05-10T05:58:32;5.40;;;4.23;;
7807;SDS011;3949;49.254;8.894;2023-05-10T06:00:58;3.83;;;3.60;;
7807;SDS011;3949;49.254;8.894;2023-05-10T06:03:24;4.20;;;3.77;;
7807;SDS011;3949;49.254;8.894;2023-05-10T06:05:51;4.30;;;4.00;;
7807;SDS011;3949;49.254;8.894;2023-05-10T06:08:17;3.77;;;3.47;;
7807;SDS011;3949;49.254;8.894;2023-05-10T06:10:43;4.60;;;4.20;;
7807;SDS011;3949;49.254;8.894;2023-05-10T06:13:10;4.40;;;4.10;;
7807;SDS011;3949;49.254;8.894;2023-05-10T06:15:36;4.30;;;3.93;;
7807;SDS011;3949;49.254;8.894;2023-05-10T06:18:02;4.23;;;3.80;;
7807;SDS011;3949;49.254;8.894;2023-05-10T06:20:28;3.70;;;3.40;;
7807;SDS011;3949;49.254;8.894;2023-05-10T06:22:56;3.40;;;3.20;;
7807;SDS011;3949;49.254;8.894;2023-05-10T06:25:22;3.37;;;3.03;;
7807;SDS011;3949;49.254;8.894;2023-05-10T06:27:48;2.97;;;2.70;;
7807;SDS011;3949;49.254;8.894;2023-05-10T06:30:14;2.53;;;2.33;;
7807;SDS011;3949;49.254;8.894;2023-05-10T06:32:40;2.80;;;2.60;;
7807;SDS011;3949;49.254;8.894;2023-05-10T06:35:08;2.47;;;2.33;;
7807;SDS011;3949;49.254;8.894;2023-05-10T06:37:34;3.43;;;2.93;;
7807;SDS011;3949;49.254;8.894;2023-05-10T06:40:00;4.50;;;3.20;;
7807;SDS011;3949;49.254;8.894;2023-05-10T06:42:26;3.53;;;3.23;;
7807;SDS011;3949;49.254;8.894;2023-05-10T06:44:52;3.00;;;2.77;;
7807;SDS011;3949;49.254;8.894;2023-05-10T06:47:18;3.10;;;2.90;;
7807;SDS011;3949;49.254;8.894;2023-05-10T06:49:44;3.90;;;3.40;;
7807;SDS011;3949;49.254;8.894;2023-05-10T06:52:10;3.40;;;3.20;;
7807;SDS011;3949;49.254;8.894;2023-05-10T06:54:36;3.50;;;3.30;;
7807;SDS011;3949;49.254;8.894;2023-05-10T06:57:02;3.60;;;3.30;;
7807;SDS011;3949;49.254;8.894;2023-05-10T06:59:28;3.30;;;3.00;;
7807;SDS011;3949;49.254;8.894;2023-05-10T07:01:54;3.40;;;3.10;;
7807;SDS011;3949;49.254;8.894;2023-05-10T07:04:20;3.93;;;3.67;;
7807;SDS011;3949;49.254;8.894;2023-05-10T07:06:46;3.67;;;3.37;;
7807;SDS011;3949;49.254;8.894;2023-05-10T07:09:14;4.10;;;3.70;;
7807;SDS011;3949;49.254;8.894;2023-05-10T07:11:40;4.00;;;3.60;;
7807;SDS011;3949;49.254;8.894;2023-05-10T07:14:06;4.57;;;4.10;;
7807;SDS011;3949;49.254;8.894;2023-05-10T07:16:32;4.07;;;3.77;;
7807;SDS011;3949;49.254;8.894;2023-05-10T07:18:58;5.00;;;4.20;;
7807;SDS011;3949;49.254;8.894;2023-05-10T07:21:24;4.30;;;4.00;;
7807;SDS011;3949;49.254;8.894;2023-05-10T07:23:53;5.20;;;4.90;;
7807;SDS011;3949;49.254;8.894;2023-05-10T07:26:19;5.10;;;4.70;;
7807;SDS011;3949;49.254;8.894;2023-05-10T07:28:45;4.50;;;4.20;;
7807;SDS011;3949;49.254;8.894;2023-05-10T07:31:11;4.27;;;3.97;;
7807;SDS011;3949;49.254;8.894;2023-05-10T07:33:37;4.80;;;4.10;;
7807;SDS011;3949;49.254;8.894;2023-05-10T07:36:04;3.43;;;3.23;;
7807;SDS011;3949;49.254;8.894;2023-05-10T07:38:29;3.30;;;3.10;;
7807;SDS011;3949;49.254;8.894;2023-05-10T07:40:55;3.63;;;3.00;;
7807;SDS011;3949;49.254;8.894;2023-05-10T07:43:21;2.70;;;2.47;;
7807;SDS011;3949;49.254;8.894;2023-05-10T07:45:47;3.00;;;2.80;;
7807;SDS011;3949;49.254;8.894;2023-05-10T07:48:13;3.80;;;2.57;;
7807;SDS011;3949;49.254;8.894;2023-05-10T07:50:39;2.90;;;2.47;;
7807;SDS011;3949;49.254;8.894;2023-05-10T07:53:05;2.50;;;2.30;;
7807;SDS011;3949;49.254;8.894;2023-05-10T07:55:32;2.83;;;2.27;;
7807;SDS011;3949;49.254;8.894;2023-05-10T07:57:58;1.97;;;1.87;;
7807;SDS011;3949;49.254;8.894;2023-05-10T08:00:26;2.20;;;1.93;;
7807;SDS011;3949;49.254;8.894;2023-05-10T08:02:52;1.90;;;1.80;;
7807;SDS011;3949;49.254;8.894;2023-05-10T08:05:18;1.97;;;1.83;;
7807;SDS011;3949;49.254;8.894;2023-05-10T08:07:44;2.90;;;2.20;;
7807;SDS011;3949;49.254;8.894;2023-05-10T08:10:10;2.57;;;1.93;;
7807;SDS011;3949;49.254;8.894;2023-05-10T08:12:36;4.20;;;2.07;;
7807;SDS011;3949;49.254;8.894;2023-05-10T08:15:03;1.90;;;1.80;;
7807;SDS011;3949;49.254;8.894;2023-05-10T08:17:29;2.07;;;1.60;;
7807;SDS011;3949;49.254;8.894;2023-05-10T08:19:55;1.63;;;1.53;;
7807;SDS011;3949;49.254;8.894;2023-05-10T08:22:21;1.63;;;1.53;;
7807;SDS011;3949;49.254;8.894;2023-05-10T08:24:47;1.83;;;1.60;;
7807;SDS011;3949;49.254;8.894;2023-05-10T08:27:13;2.30;;;1.47;;
7807;SDS011;3949;49.254;8.894;2023-05-10T08:29:39;1.13;;;1.13;;
7807;SDS011;3949;49.254;8.894;2023-05-10T08:32:05;1.30;;;1.20;;
7807;SDS011;3949;49.254;8.894;2023-05-10T08:34:31;1.70;;;1.60;;
7807;SDS011;3949;49.254;8.894;2023-05-10T08:36:57;1.13;;;1.03;;
7807;SDS011;3949;49.254;8.894;2023-05-10T08:39:23;1.63;;;1.40;;
7807;SDS011;3949;49.254;8.894;2023-05-10T08:41:48;1.70;;;1.60;;
7807;SDS011;3949;49.254;8.894;2023-05-10T08:44:16;1.43;;;1.30;;
7807;SDS011;3949;49.254;8.894;2023-05-10T08:46:43;1.10;;;1.03;;
7807;SDS011;3949;49.254;8.894;2023-05-10T08:49:12;1.10;;;1.00;;
7807;SDS011;3949;49.254;8.894;2023-05-10T08:51:40;1.00;;;1.00;;
7807;SDS011;3949;49.254;8.894;2023-05-10T08:54:07;1.67;;;1.30;;
7807;SDS011;3949;49.254;8.894;2023-05-10T08:56:33;1.20;;;1.20;;
7807;SDS011;3949;49.254;8.894;2023-05-10T08:58:58;1.20;;;1.10;;
7807;SDS011;3949;49.254;8.894;2023-05-10T09:01:25;1.00;;;1.00;;
7807;SDS011;3949;49.254;8.894;2023-05-10T09:03:52;1.10;;;1.10;;
7807;SDS011;3949;49.254;8.894;2023-05-10T09:06:18;2.00;;;1.27;;
7807;SDS011;3949;49.254;8.894;2023-05-10T09:08:44;2.43;;;1.10;;
7807;SDS011;3949;49.254;8.894;2023-05-10T09:11:11;1.57;;;1.40;;
7807;SDS011;3949;49.254;8.894;2023-05-10T09:13:37;1.30;;;1.20;;
7807;SDS011;3949;49.254;8.894;2023-05-10T09:16:03;1.70;;;1.00;;
7807;SDS011;3949;49.254;8.894;2023-05-10T09:18:29;0.90;;;0.90;;
7807;SDS011;3949;49.254;8.894;2023-05-10T09:20:56;1.07;;;1.00;;
7807;SDS011;3949;49.254;8.894;2023-05-10T09:23:21;2.10;;;0.83;;
7807;SDS011;3949;49.254;8.894;2023-05-10T09:26:01;1.23;;;1.17;;
7807;SDS011;3949;49.254;8.894;2023-05-10T09:28:31;2.50;;;0.90;;
7807;SDS011;3949;49.254;8.894;2023-05-10T09:30:56;1.60;;;0.80;;
7807;SDS011;3949;49.254;8.894;2023-05-10T09:33:23;0.73;;;0.73;;
7807;SDS011;3949;49.254;8.894;2023-05-10T09:35:49;1.87;;;0.93;;
7807;SDS011;3949;49.254;8.894;2023-05-10T09:38:17;2.40;;;0.90;;
7807;SDS011;3949;49.254;8.894;2023-05-10T09:40:50;0.60;;;0.60;;
7807;SDS011;3949;49.254;8.894;2023-05-10T09:43:19;1.23;;;0.90;;
7807;SDS011;3949;49.254;8.894;2023-05-10T09:45:45;0.73;;;0.70;;
7807;SDS011;3949;49.254;8.894;2023-05-10T09:48:16;1.03;;;0.80;;
7807;SDS011;3949;49.254;8.894;2023-05-10T09:50:42;1.30;;;0.87;;
7807;SDS011;3949;49.254;8.894;2023-05-10T09:53:08;1.63;;;0.70;;
7807;SDS011;3949;49.254;8.894;2023-05-10T09:55:41;2.40;;;0.70;;
7807;SDS011;3949;49.254;8.894;2023-05-10T09:58:09;0.97;;;0.80;;
7807;SDS011;3949;49.254;8.894;2023-05-10T10:00:39;1.17;;;1.07;;
7807;SDS011;3949;49.254;8.894;2023-05-10T10:03:06;1.60;;;0.73;;
7807;SDS011;3949;49.254;8.894;2023-05-10T10:05:39;0.60;;;0.50;;
7807;SDS011;3949;49.254;8.894;2023-05-10T10:08:05;0.83;;;0.70;;
7807;SDS011;3949;49.254;8.894;2023-05-10T10:10:32;0.70;;;0.70;;
7807;SDS011;3949;49.254;8.894;2023-05-10T10:12:58;1.10;;;0.50;;
7807;SDS011;3949;49.254;8.894;2023-05-10T10:15:24;0.73;;;0.73;;
7807;SDS011;3949;49.254;8.894;2023-05-10T10:17:51;0.70;;;0.70;;
7807;SDS011;3949;49.254;8.894;2023-05-10T10:20:17;0.70;;;0.70;;
7807;SDS011;3949;49.254;8.894;2023-05-10T10:22:43;0.83;;;0.83;;
7807;SDS011;3949;49.254;8.894;2023-05-10T10:25:11;0.73;;;0.50;;
7807;SDS011;3949;49.254;8.894;2023-05-10T10:27:41;0.97;;;0.70;;
7807;SDS011;3949;49.254;8.894;2023-05-10T10:35:31;0.63;;;0.50;;
7807;SDS011;3949;49.254;8.894;2023-05-10T10:37:57;1.23;;;0.60;;
7807;SDS011;3949;49.254;8.894;2023-05-10T10:40:24;1.37;;;0.90;;
7807;SDS011;3949;49.254;8.894;2023-05-10T10:42:50;1.87;;;1.00;;
7807;SDS011;3949;49.254;8.894;2023-05-10T10:45:17;0.70;;;0.70;;
7807;SDS011;3949;49.254;8.894;2023-05-10T10:47:43;1.27;;;0.97;;
7807;SDS011;3949;49.254;8.894;2023-05-10T10:50:10;0.93;;;0.90;;
7807;SDS011;3949;49.254;8.894;2023-05-10T10:52:41;1.23;;;1.00;;
7807;SDS011;3949;49.254;8.894;2023-05-10T11:00:19;1.10;;;0.73;;
7807;SDS011;3949;49.254;8.894;2023-05-10T11:02:46;0.57;;;0.40;;
7807;SDS011;3949;49.254;8.894;2023-05-10T11:07:55;1.53;;;0.90;;
7807;SDS011;3949;49.254;8.894;2023-05-10T11:10:21;0.60;;;0.60;;
7807;SDS011;3949;49.254;8.894;2023-05-10T11:12:58;1.03;;;0.80;;
7807;SDS011;3949;49.254;8.894;2023-05-10T11:15:29;0.80;;;0.80;;
7807;SDS011;3949;49.254;8.894;2023-05-10T11:17:55;1.33;;;0.93;;
7807;SDS011;3949;49.254;8.894;2023-05-10T11:20:21;0.77;;;0.77;;
7807;SDS011;3949;49.254;8.894;2023-05-10T11:22:50;0.80;;;0.80;;
7807;SDS011;3949;49.254;8.894;2023-05-10T11:25:16;1.70;;;1.27;;
7807;SDS011;3949;49.254;8.894;2023-05-10T11:27:42;1.40;;;1.13;;
7807;SDS011;3949;49.254;8.894;2023-05-10T11:30:09;1.40;;;1.20;;
7807;SDS011;3949;49.254;8.894;2023-05-10T11:32:39;1.60;;;1.07;;
7807;SDS011;3949;49.254;8.894;2023-05-10T11:35:09;4.13;;;1.47;;
7807;SDS011;3949;49.254;8.894;2023-05-10T11:37:35;0.80;;;0.80;;
7807;SDS011;3949;49.254;8.894;2023-05-10T11:40:02;1.10;;;1.00;;
7807;SDS011;3949;49.254;8.894;2023-05-10T11:42:28;1.73;;;1.10;;
7807;SDS011;3949;49.254;8.894;2023-05-10T11:44:55;1.80;;;1.30;;
7807;SDS011;3949;49.254;8.894;2023-05-10T11:47:21;1.00;;;0.90;;
7807;SDS011;3949;49.254;8.894;2023-05-10T11:49:47;2.00;;;1.10;;
7807;SDS011;3949;49.254;8.894;2023-05-10T11:52:13;2.07;;;1.10;;
7807;SDS011;3949;49.254;8.894;2023-05-10T11:54:52;1.00;;;1.00;;
7807;SDS011;3949;49.254;8.894;2023-05-10T11:57:18;1.20;;;0.97;;
7807;SDS011;3949;49.254;8.894;2023-05-10T11:59:45;2.17;;;1.00;;
7807;SDS011;3949;49.254;8.894;2023-05-10T12:02:12;0.70;;;0.70;;
7807;SDS011;3949;49.254;8.894;2023-05-10T12:04:38;1.17;;;0.73;;
7807;SDS011;3949;49.254;8.894;2023-05-10T12:07:05;2.63;;;1.40;;
7807;SDS011;3949;49.254;8.894;2023-05-10T12:09:31;4.83;;;1.27;;
7807;SDS011;3949;49.254;8.894;2023-05-10T12:11:57;0.93;;;0.93;;
7807;SDS011;3949;49.254;8.894;2023-05-10T12:14:23;1.13;;;0.80;;
7807;SDS011;3949;49.254;8.894;2023-05-10T12:16:49;1.77;;;1.50;;
7807;SDS011;3949;49.254;8.894;2023-05-10T12:19:19;1.80;;;1.07;;
7807;SDS011;3949;49.254;8.894;2023-05-10T12:21:48;1.50;;;1.30;;
7807;SDS011;3949;49.254;8.894;2023-05-10T12:24:14;1.07;;;1.00;;
7807;SDS011;3949;49.254;8.894;2023-05-10T12:26:45;1.77;;;1.07;;
7807;SDS011;3949;49.254;8.894;2023-05-10T12:29:15;2.00;;;1.47;;
7807;SDS011;3949;49.254;8.894;2023-05-10T12:31:57;1.57;;;1.30;;
7807;SDS011;3949;49.254;8.894;2023-05-10T12:36:51;0.70;;;0.60;;
7807;SDS011;3949;49.254;8.894;2023-05-10T12:39:17;2.50;;;0.80;;
7807;SDS011;3949;49.254;8.894;2023-05-10T12:41:43;1.17;;;0.60;;
7807;SDS011;3949;49.254;8.894;2023-05-10T12:44:09;1.13;;;0.80;;
7807;SDS011;3949;49.254;8.894;2023-05-10T12:46:35;1.37;;;0.87;;
7807;SDS011;3949;49.254;8.894;2023-05-10T12:49:01;1.87;;;0.87;;
7807;SDS011;3949;49.254;8.894;2023-05-10T12:51:27;2.00;;;1.20;;
7807;SDS011;3949;49.254;8.894;2023-05-10T12:53:53;2.30;;;1.40;;
7807;SDS011;3949;49.254;8.894;2023-05-10T12:56:20;1.63;;;1.10;;
7807;SDS011;3949;49.254;8.894;2023-05-10T12:58:46;1.03;;;0.93;;
7807;SDS011;3949;49.254;8.894;2023-05-10T13:01:13;1.43;;;0.90;;
7807;SDS011;3949;49.254;8.894;2023-05-10T13:03:39;1.00;;;0.90;;
7807;SDS011;3949;49.254;8.894;2023-05-10T13:06:05;1.47;;;1.00;;
7807;SDS011;3949;49.254;8.894;2023-05-10T13:08:31;2.57;;;0.90;;
7807;SDS011;3949;49.254;8.894;2023-05-10T13:11:01;1.43;;;1.00;;
7807;SDS011;3949;49.254;8.894;2023-05-10T13:13:27;1.80;;;1.10;;
7807;SDS011;3949;49.254;8.894;2023-05-10T13:15:53;1.07;;;0.87;;
7807;SDS011;3949;49.254;8.894;2023-05-10T13:18:19;1.00;;;0.90;;
7807;SDS011;3949;49.254;8.894;2023-05-10T13:20:45;2.57;;;1.13;;
7807;SDS011;3949;49.254;8.894;2023-05-10T13:23:11;0.90;;;0.90;;
7807;SDS011;3949;49.254;8.894;2023-05-10T13:25:37;3.43;;;1.33;;
7807;SDS011;3949;49.254;8.894;2023-05-10T13:28:04;1.17;;;1.07;;
7807;SDS011;3949;49.254;8.894;2023-05-10T13:30:30;2.23;;;1.30;;
7807;SDS011;3949;49.254;8.894;2023-05-10T13:32:56;2.03;;;1.20;;
7807;SDS011;3949;49.254;8.894;2023-05-10T13:35:22;2.37;;;1.40;;
7807;SDS011;3949;49.254;8.894;2023-05-10T13:37:48;2.67;;;1.03;;
7807;SDS011;3949;49.254;8.894;2023-05-10T13:40:14;1.30;;;1.20;;
7807;SDS011;3949;49.254;8.894;2023-05-10T13:42:40;0.80;;;0.77;;
7807;SDS011;3949;49.254;8.894;2023-05-10T13:45:06;3.40;;;1.20;;
7807;SDS011;3949;49.254;8.894;2023-05-10T13:47:32;1.67;;;0.77;;
7807;SDS011;3949;49.254;8.894;2023-05-10T13:49:58;1.60;;;1.20;;
7807;SDS011;3949;49.254;8.894;2023-05-10T13:52:25;1.43;;;0.83;;
7807;SDS011;3949;49.254;8.894;2023-05-10T13:54:51;2.47;;;1.30;;
7807;SDS011;3949;49.254;8.894;2023-05-10T13:57:19;1.33;;;1.17;;
7807;SDS011;3949;49.254;8.894;2023-05-10T13:59:45;4.67;;;3.50;;
7807;SDS011;3949;49.254;8.894;2023-05-10T14:02:12;2.67;;;1.60;;
7807;SDS011;3949;49.254;8.894;2023-05-10T14:04:38;1.67;;;1.10;;
7807;SDS011;3949;49.254;8.894;2023-05-10T14:07:04;1.40;;;1.30;;
7807;SDS011;3949;49.254;8.894;2023-05-10T14:09:30;1.40;;;1.30;;
7807;SDS011;3949;49.254;8.894;2023-05-10T14:11:56;2.97;;;1.50;;
7807;SDS011;3949;49.254;8.894;2023-05-10T14:14:22;1.53;;;1.13;;
7807;SDS011;3949;49.254;8.894;2023-05-10T14:16:48;1.40;;;1.30;;
7807;SDS011;3949;49.254;8.894;2023-05-10T14:19:14;2.10;;;1.10;;
7807;SDS011;3949;49.254;8.894;2023-05-10T14:21:42;2.00;;;0.90;;
7807;SDS011;3949;49.254;8.894;2023-05-10T14:24:09;1.67;;;1.47;;
7807;SDS011;3949;49.254;8.894;2023-05-10T14:26:53;1.30;;;1.17;;
7807;SDS011;3949;49.254;8.894;2023-05-10T14:29:22;1.33;;;1.10;;
7807;SDS011;3949;49.254;8.894;2023-05-10T14:31:51;1.20;;;1.10;;
7807;SDS011;3949;49.254;8.894;2023-05-10T14:34:20;26.93;;;11.83;;
7807;SDS011;3949;49.254;8.894;2023-05-10T14:36:55;2.87;;;1.53;;
7807;SDS011;3949;49.254;8.894;2023-05-10T14:39:30;1.57;;;1.30;;
7807;SDS011;3949;49.254;8.894;2023-05-10T14:41:59;2.13;;;1.17;;
7807;SDS011;3949;49.254;8.894;2023-05-10T14:44:25;6.80;;;2.93;;
7807;SDS011;3949;49.254;8.894;2023-05-10T14:46:51;3.30;;;2.50;;
7807;SDS011;3949;49.254;8.894;2023-05-10T14:49:17;4.90;;;2.60;;
7807;SDS011;3949;49.254;8.894;2023-05-10T14:51:43;1.57;;;0.83;;
7807;SDS011;3949;49.254;8.894;2023-05-10T14:54:10;2.83;;;0.90;;
7807;SDS011;3949;49.254;8.894;2023-05-10T14:56:35;0.80;;;0.80;;
7807;SDS011;3949;49.254;8.894;2023-05-10T14:59:02;2.43;;;1.00;;
7807;SDS011;3949;49.254;8.894;2023-05-10T15:01:29;1.70;;;1.43;;
7807;SDS011;3949;49.254;8.894;2023-05-10T15:03:56;1.60;;;0.80;;
7807;SDS011;3949;49.254;8.894;2023-05-10T15:06:23;1.23;;;1.00;;
7807;SDS011;3949;49.254;8.894;2023-05-10T15:08:50;3.53;;;1.80;;
7807;SDS011;3949;49.254;8.894;2023-05-10T15:11:16;1.57;;;0.80;;
7807;SDS011;3949;49.254;8.894;2023-05-10T15:13:42;1.43;;;0.60;;
7807;SDS011;3949;49.254;8.894;2023-05-10T15:16:08;2.13;;;0.80;;
7807;SDS011;3949;49.254;8.894;2023-05-10T15:18:35;1.20;;;0.83;;
7807;SDS011;3949;49.254;8.894;2023-05-10T15:21:01;1.27;;;0.97;;
7807;SDS011;3949;49.254;8.894;2023-05-10T15:23:27;0.87;;;0.60;;
7807;SDS011;3949;49.254;8.894;2023-05-10T15:25:54;0.67;;;0.60;;
7807;SDS011;3949;49.254;8.894;2023-05-10T15:28:21;1.03;;;0.87;;
7807;SDS011;3949;49.254;8.894;2023-05-10T15:30:47;3.77;;;0.83;;
7807;SDS011;3949;49.254;8.894;2023-05-10T15:33:13;0.63;;;0.63;;
7807;SDS011;3949;49.254;8.894;2023-05-10T15:35:39;0.97;;;0.87;;
7807;SDS011;3949;49.254;8.894;2023-05-10T15:38:05;0.80;;;0.80;;
7807;SDS011;3949;49.254;8.894;2023-05-10T15:40:32;1.70;;;0.70;;
7807;SDS011;3949;49.254;8.894;2023-05-10T15:42:58;0.37;;;0.37;;
7807;SDS011;3949;49.254;8.894;2023-05-10T15:45:24;1.00;;;0.90;;
7807;SDS011;3949;49.254;8.894;2023-05-10T15:47:50;2.23;;;0.80;;
7807;SDS011;3949;49.254;8.894;2023-05-10T15:50:16;1.17;;;0.60;;